Time;durP1;ratioP1;P1;durP2;ratioP2;P2;SDS_P1;SDS_P2;PMS_P1;PMS_P2;Temp;Humidity;BMP_temperature;BMP_pressure;BME280_temperature;BME280_humidity;BME280_pressure;Samples;Min_cycle;Max_cycle;Signal;HPM_P1;HPM_P2
2023/12/18 00:01:54;;;;;;;6.53;6.23;;;5.00;80.00;;;;;;6286747;28;20233;-81
2023/12/18 00:04:57;;;;;;;6.27;5.87;;;5.00;80.00;;;;;;6279807;28;20379;-79
2023/12/18 00:08:06;;;;;;;6.67;6.27;;;5.00;80.20;;;;;;6273063;28;20864;-80
2023/12/18 00:11:09;;;;;;;6.63;6.33;;;5.10;79.90;;;;;;6288051;28;20512;-79
2023/12/18 00:14:12;;;;;;;5.50;5.30;;;5.00;80.20;;;;;;6286442;28;20650;-78
2023/12/18 00:17:15;;;;;;;7.20;6.80;;;5.00;80.40;;;;;;6283765;28;20294;-79
2023/12/18 00:20:19;;;;;;;6.33;6.03;;;5.00;80.30;;;;;;6280813;28;20302;-79
2023/12/18 00:23:23;;;;;;;6.47;6.17;;;4.90;80.40;;;;;;6281647;28;21187;-79
2023/12/18 00:26:26;;;;;;;6.50;6.20;;;4.90;80.30;;;;;;6274104;28;20237;-80
2023/12/18 00:29:29;;;;;;;6.30;6.00;;;4.90;80.60;;;;;;6285943;28;20249;-79
2023/12/18 00:32:33;;;;;;;7.33;6.43;;;4.90;80.60;;;;;;6280290;28;20980;-80
2023/12/18 00:35:36;;;;;;;6.73;6.37;;;4.90;80.60;;;;;;6282645;28;20387;-79
2023/12/18 00:38:40;;;;;;;6.60;6.00;;;4.90;80.90;;;;;;6288187;28;20260;-79
2023/12/18 00:41:43;;;;;;;6.17;5.87;;;4.80;80.80;;;;;;6273549;28;20234;-79
2023/12/18 00:44:46;;;;;;;6.50;6.00;;;4.80;80.90;;;;;;6264581;28;20233;-81
2023/12/18 00:47:49;;;;;;;6.33;6.07;;;4.80;81.10;;;;;;6271362;28;20372;-81
2023/12/18 00:50:53;;;;;;;6.23;5.93;;;4.80;81.20;;;;;;6274932;28;20760;-80
2023/12/18 00:53:57;;;;;;;6.80;6.40;;;4.70;81.20;;;;;;6262114;28;20234;-80
2023/12/18 00:57:00;;;;;;;6.90;6.40;;;4.70;81.40;;;;;;6278102;28;20340;-79
2023/12/18 01:00:06;;;;;;;6.77;6.37;;;4.70;81.50;;;;;;6284294;28;20267;-80
2023/12/18 01:03:13;;;;;;;6.70;6.23;;;4.70;81.50;;;;;;6278517;28;20235;-80
2023/12/18 01:06:16;;;;;;;6.50;6.20;;;4.70;81.50;;;;;;6279530;28;20226;-78
2023/12/18 01:09:21;;;;;;;6.37;6.07;;;4.70;81.60;;;;;;6282235;28;20233;-78
2023/12/18 01:12:24;;;;;;;6.93;6.53;;;4.70;81.70;;;;;;6285627;28;20696;-79
2023/12/18 01:15:27;;;;;;;6.83;6.47;;;4.70;81.70;;;;;;6272388;28;20885;-80
2023/12/18 01:18:31;;;;;;;7.40;6.80;;;4.70;81.90;;;;;;6277417;28;20237;-79
2023/12/18 01:21:35;;;;;;;7.33;6.73;;;4.70;82.10;;;;;;6274606;28;20246;-78
2023/12/18 01:24:39;;;;;;;6.77;6.40;;;4.70;81.90;;;;;;6282020;28;20237;-79
2023/12/18 01:27:42;;;;;;;7.27;6.87;;;4.70;82.20;;;;;;6278091;28;20810;-80
2023/12/18 01:30:46;;;;;;;7.13;6.73;;;4.70;82.50;;;;;;6281860;28;20256;-81
2023/12/18 01:33:50;;;;;;;7.80;7.30;;;4.70;82.50;;;;;;6278166;28;20237;-78
2023/12/18 01:36:53;;;;;;;6.83;6.53;;;4.80;82.40;;;;;;6269758;28;20236;-80
2023/12/18 01:39:57;;;;;;;6.90;6.50;;;4.90;82.20;;;;;;6287931;28;20274;-80
2023/12/18 01:43:00;;;;;;;7.03;6.53;;;4.90;82.20;;;;;;6269555;28;20801;-79
2023/12/18 01:46:05;;;;;;;7.23;6.73;;;4.90;82.20;;;;;;6278408;28;20326;-80
2023/12/18 01:49:10;;;;;;;7.40;6.80;;;4.90;82.30;;;;;;6286640;28;20256;-80
2023/12/18 01:52:14;;;;;;;6.73;6.33;;;4.80;82.40;;;;;;6269930;28;20244;-79
2023/12/18 01:55:18;;;;;;;7.00;6.60;;;4.90;82.20;;;;;;6283580;28;20958;-81
2023/12/18 01:58:21;;;;;;;6.97;6.57;;;4.90;82.10;;;;;;6279940;28;20229;-79
2023/12/18 02:01:25;;;;;;;7.60;7.20;;;4.90;82.30;;;;;;6270493;28;20264;-80
2023/12/18 02:04:28;;;;;;;7.77;7.23;;;5.00;82.20;;;;;;6271688;28;20893;-78
2023/12/18 02:07:34;;;;;;;7.23;6.83;;;5.00;82.30;;;;;;6285749;28;20297;-79
2023/12/18 02:10:39;;;;;;;7.43;6.80;;;5.00;82.40;;;;;;6286123;28;20241;-80
2023/12/18 02:13:42;;;;;;;6.60;6.30;;;5.00;82.70;;;;;;6277004;28;20344;-79
2023/12/18 02:16:45;;;;;;;8.40;7.90;;;5.00;82.50;;;;;;6284236;28;20237;-81
2023/12/18 02:19:48;;;;;;;7.00;6.57;;;5.00;82.60;;;;;;6282306;28;20544;-80
2023/12/18 02:22:53;;;;;;;8.00;7.50;;;5.10;82.80;;;;;;6279607;28;20325;-80
2023/12/18 02:25:56;;;;;;;7.60;7.20;;;5.10;82.80;;;;;;6268659;28;20229;-78
2023/12/18 02:28:59;;;;;;;7.00;6.67;;;5.20;82.70;;;;;;6284892;28;20222;-79
2023/12/18 02:32:02;;;;;;;8.33;7.63;;;5.30;82.40;;;;;;6284952;28;20737;-80
2023/12/18 02:35:07;;;;;;;7.97;7.57;;;5.30;82.40;;;;;;6278501;28;20241;-79
2023/12/18 02:38:11;;;;;;;7.20;6.73;;;5.50;82.30;;;;;;6276082;28;20242;-80
2023/12/18 02:41:15;;;;;;;7.27;6.67;;;5.50;82.10;;;;;;6285201;28;20230;-77
2023/12/18 02:44:18;;;;;;;7.77;7.27;;;5.50;82.00;;;;;;6273059;28;20272;-80
2023/12/18 02:47:21;;;;;;;8.37;7.67;;;5.60;82.00;;;;;;6283896;28;20323;-80
2023/12/18 02:50:24;;;;;;;9.93;9.03;;;5.70;82.10;;;;;;6275654;28;20568;-79
2023/12/18 02:53:29;;;;;;;9.37;8.63;;;5.90;82.00;;;;;;6272715;28;20836;-79
2023/12/18 02:56:32;;;;;;;10.73;9.83;;;6.10;81.60;;;;;;6287195;28;20256;-80
2023/12/18 02:59:35;;;;;;;11.67;9.83;;;6.20;81.20;;;;;;6278706;28;20330;-78
2023/12/18 03:02:38;;;;;;;10.33;9.53;;;6.30;80.90;;;;;;6283808;28;20237;-79
2023/12/18 03:05:42;;;;;;;13.67;11.40;;;6.40;80.60;;;;;;6280739;28;20233;-79
2023/12/18 03:08:46;;;;;;;17.80;11.40;;;6.50;80.10;;;;;;6278261;28;20280;-80
2023/12/18 03:11:49;;;;;;;11.57;10.37;;;6.60;79.60;;;;;;6275803;28;20318;-79
2023/12/18 03:14:54;;;;;;;13.73;12.33;;;6.70;79.30;;;;;;6275305;28;20238;-82
2023/12/18 03:17:57;;;;;;;12.80;11.60;;;6.70;79.00;;;;;;6278004;28;20770;-79
2023/12/18 03:21:00;;;;;;;13.47;12.07;;;6.80;78.50;;;;;;6277832;28;20732;-80
2023/12/18 03:24:05;;;;;;;15.80;12.20;;;6.80;77.90;;;;;;6288031;28;20391;-78
2023/12/18 03:27:08;;;;;;;15.40;12.67;;;6.80;77.90;;;;;;6259201;28;20709;-77
2023/12/18 03:30:12;;;;;;;14.47;13.07;;;6.80;77.80;;;;;;6279304;28;20240;-79
2023/12/18 03:33:15;;;;;;;14.30;12.93;;;6.80;77.60;;;;;;6263877;28;20234;-79
2023/12/18 03:36:18;;;;;;;14.87;13.33;;;6.80;77.50;;;;;;6279565;28;20233;-78
2023/12/18 03:39:23;;;;;;;16.97;12.67;;;6.90;77.40;;;;;;6271301;28;20321;-81
2023/12/18 03:42:27;;;;;;;17.70;13.07;;;6.90;77.20;;;;;;6266096;28;20241;-80
2023/12/18 03:45:30;;;;;;;14.07;12.63;;;6.90;77.10;;;;;;6275833;28;20237;-79
2023/12/18 03:48:33;;;;;;;14.43;13.00;;;6.90;77.00;;;;;;6282547;28;20241;-78
2023/12/18 03:51:36;;;;;;;15.97;14.27;;;6.90;76.90;;;;;;6288143;28;20241;-79
2023/12/18 03:54:40;;;;;;;15.63;13.73;;;6.90;77.10;;;;;;6276649;28;20238;-78
2023/12/18 03:57:45;;;;;;;15.33;13.83;;;6.90;77.00;;;;;;6280414;28;20233;-79
2023/12/18 04:00:49;;;;;;;16.07;14.40;;;6.90;76.90;;;;;;6273634;28;20252;-79
2023/12/18 04:03:52;;;;;;;15.83;14.07;;;6.90;76.80;;;;;;6287039;28;20230;-78
2023/12/18 04:06:55;;;;;;;15.37;13.83;;;6.90;76.80;;;;;;6283369;28;20658;-79
2023/12/18 04:10:00;;;;;;;15.47;13.87;;;6.90;76.80;;;;;;6273776;28;20234;-79
2023/12/18 04:13:03;;;;;;;14.83;13.37;;;6.80;76.90;;;;;;6285177;28;20338;-80
2023/12/18 04:16:07;;;;;;;16.20;14.57;;;6.80;77.00;;;;;;6277552;28;20641;-80
2023/12/18 04:19:11;;;;;;;16.07;13.93;;;6.80;76.80;;;;;;6278632;28;20268;-80
2023/12/18 04:22:14;;;;;;;18.50;14.20;;;6.80;77.00;;;;;;6282422;28;20245;-79
2023/12/18 04:25:19;;;;;;;18.07;14.87;;;6.80;76.90;;;;;;6280043;28;20329;-80
2023/12/18 04:28:22;;;;;;;14.57;13.03;;;6.80;77.00;;;;;;6274434;28;20309;-79
2023/12/18 04:31:28;;;;;;;16.37;13.83;;;6.80;76.90;;;;;;6262449;28;20238;-80
2023/12/18 04:34:32;;;;;;;16.60;13.40;;;6.80;76.90;;;;;;6277343;28;20336;-80
2023/12/18 04:37:35;;;;;;;15.70;14.23;;;6.80;76.80;;;;;;6283517;28;20233;-80
2023/12/18 04:40:40;;;;;;;15.87;13.90;;;6.80;76.80;;;;;;6281507;28;20282;-79
2023/12/18 04:43:43;;;;;;;15.93;13.87;;;6.80;76.70;;;;;;6281096;28;20600;-78
2023/12/18 04:46:46;;;;;;;16.17;14.57;;;6.80;76.80;;;;;;6286474;28;20248;-78
2023/12/18 04:49:50;;;;;;;15.97;14.20;;;6.80;76.60;;;;;;6282419;28;20768;-79
2023/12/18 04:52:53;;;;;;;17.57;14.43;;;6.70;76.60;;;;;;6280295;28;20834;-79
2023/12/18 04:55:58;;;;;;;16.73;14.23;;;6.80;76.60;;;;;;6283272;28;20606;-80
2023/12/18 04:59:01;;;;;;;17.60;14.40;;;6.80;76.60;;;;;;6278904;28;20315;-80
2023/12/18 05:02:04;;;;;;;16.10;14.47;;;6.80;76.50;;;;;;6288566;28;20509;-80
2023/12/18 05:05:08;;;;;;;21.03;15.33;;;6.80;76.20;;;;;;6284591;28;20277;-80
2023/12/18 05:08:11;;;;;;;17.40;15.63;;;6.80;76.10;;;;;;6272877;28;20317;-80
2023/12/18 05:11:17;;;;;;;15.83;14.13;;;6.80;76.00;;;;;;6287450;28;20240;-79
2023/12/18 05:14:20;;;;;;;16.53;14.83;;;6.80;76.00;;;;;;6286824;28;20268;-81
2023/12/18 05:17:25;;;;;;;19.40;16.00;;;6.70;76.20;;;;;;6283874;28;20311;-81
2023/12/18 05:20:28;;;;;;;17.13;14.83;;;6.80;76.30;;;;;;6291549;28;20236;-81
2023/12/18 05:23:32;;;;;;;17.13;15.30;;;6.70;76.70;;;;;;6270689;28;20818;-78
2023/12/18 05:26:36;;;;;;;17.30;15.63;;;6.70;76.80;;;;;;6279586;28;20811;-81
2023/12/18 05:29:39;;;;;;;17.03;15.27;;;6.70;76.70;;;;;;6287995;28;20249;-81
2023/12/18 05:32:42;;;;;;;18.03;16.27;;;6.70;76.70;;;;;;6272369;28;20237;-80
2023/12/18 05:35:47;;;;;;;16.27;14.77;;;6.70;76.60;;;;;;6284186;28;20729;-80
2023/12/18 05:38:50;;;;;;;16.97;15.17;;;6.70;76.50;;;;;;6285494;28;20275;-81
2023/12/18 05:41:54;;;;;;;17.07;15.07;;;6.70;76.20;;;;;;6282220;28;20359;-79
2023/12/18 05:44:57;;;;;;;16.00;14.43;;;6.70;75.90;;;;;;6284693;28;20921;-79
2023/12/18 05:48:01;;;;;;;16.80;14.43;;;6.70;75.10;;;;;;6283924;28;20233;-78
2023/12/18 05:51:05;;;;;;;17.10;15.27;;;6.70;74.90;;;;;;6270250;28;20239;-81
2023/12/18 05:54:08;;;;;;;16.57;14.73;;;6.80;74.80;;;;;;6280122;28;20644;-80
2023/12/18 05:57:16;;;;;;;17.47;15.50;;;6.80;74.70;;;;;;6280137;28;20221;-79
2023/12/18 06:00:20;;;;;;;16.67;14.20;;;6.70;74.90;;;;;;6282304;28;20312;-78
2023/12/18 06:03:23;;;;;;;17.10;15.13;;;6.70;75.00;;;;;;6280170;28;20982;-80
2023/12/18 06:06:26;;;;;;;17.17;14.77;;;6.70;75.00;;;;;;6282113;28;20634;-79
2023/12/18 06:09:29;;;;;;;16.63;14.53;;;6.70;75.00;;;;;;6279924;28;20810;-77
2023/12/18 06:12:34;;;;;;;16.40;14.67;;;6.70;74.90;;;;;;6272063;28;20256;-81
2023/12/18 06:15:37;;;;;;;18.13;14.60;;;6.70;74.70;;;;;;6277842;28;20358;-78
2023/12/18 06:18:40;;;;;;;16.30;14.20;;;6.70;74.80;;;;;;6275054;28;20236;-78
2023/12/18 06:21:44;;;;;;;17.90;14.93;;;6.70;74.80;;;;;;6275447;28;20245;-80
2023/12/18 06:24:47;;;;;;;16.93;14.40;;;6.70;74.70;;;;;;6297369;28;20284;-79
2023/12/18 06:27:52;;;;;;;18.93;15.03;;;6.60;74.90;;;;;;6279858;28;20242;-80
2023/12/18 06:30:55;;;;;;;17.63;14.03;;;6.60;75.10;;;;;;6286143;28;20595;-76
2023/12/18 06:33:58;;;;;;;18.60;15.43;;;6.60;75.10;;;;;;6279984;28;20952;-75
2023/12/18 06:37:01;;;;;;;15.50;14.00;;;6.60;75.00;;;;;;6289257;28;20260;-76
2023/12/18 06:40:05;;;;;;;16.03;13.53;;;6.60;75.00;;;;;;6290939;28;20234;-79
2023/12/18 06:43:10;;;;;;;18.80;14.77;;;6.70;75.00;;;;;;6288006;28;20229;-77
2023/12/18 06:46:13;;;;;;;16.60;15.07;;;6.70;75.00;;;;;;6292519;28;20309;-78
2023/12/18 06:49:16;;;;;;;19.03;15.57;;;6.70;74.80;;;;;;6289097;28;20236;-76
2023/12/18 06:52:19;;;;;;;18.73;15.17;;;6.60;75.10;;;;;;6278171;28;20244;-79
2023/12/18 06:55:23;;;;;;;17.00;15.23;;;6.60;75.40;;;;;;6282932;28;20914;-78
2023/12/18 06:58:27;;;;;;;16.87;14.47;;;6.60;75.40;;;;;;6282425;28;20708;-79
2023/12/18 07:01:31;;;;;;;17.83;15.87;;;6.70;75.30;;;;;;6284808;28;20759;-78
2023/12/18 07:04:34;;;;;;;16.17;14.40;;;6.60;75.30;;;;;;6285560;28;20240;-79
2023/12/18 07:07:37;;;;;;;16.73;15.07;;;6.70;75.10;;;;;;6279747;28;20241;-79
2023/12/18 07:10:40;;;;;;;17.73;14.40;;;6.70;75.10;;;;;;6284743;28;20237;-79
2023/12/18 07:13:48;;;;;;;20.40;15.37;;;6.70;75.00;;;;;;6292435;28;20241;-78
2023/12/18 07:16:52;;;;;;;16.13;14.53;;;6.60;75.10;;;;;;6278355;28;20252;-78
2023/12/18 07:19:55;;;;;;;16.50;14.90;;;6.60;75.10;;;;;;6281363;28;20252;-78
2023/12/18 07:22:58;;;;;;;16.40;14.80;;;6.60;75.20;;;;;;6279757;28;20237;-77
2023/12/18 07:26:03;;;;;;;16.53;14.73;;;6.70;74.90;;;;;;6291416;28;20317;-77
2023/12/18 07:29:07;;;;;;;17.47;15.03;;;6.70;74.80;;;;;;6284799;28;20233;-78
2023/12/18 07:32:10;;;;;;;16.30;14.90;;;6.70;74.60;;;;;;6279635;28;20241;-80
2023/12/18 07:35:13;;;;;;;14.70;13.53;;;6.70;74.90;;;;;;6291652;28;20259;-78
2023/12/18 07:38:17;;;;;;;16.50;14.43;;;6.70;74.70;;;;;;6275220;28;20241;-78
2023/12/18 07:41:20;;;;;;;17.30;14.60;;;6.70;74.80;;;;;;6284192;28;20231;-77
2023/12/18 07:44:24;;;;;;;16.13;14.43;;;6.70;74.70;;;;;;6289219;28;20253;-79
2023/12/18 07:47:27;;;;;;;16.43;14.33;;;6.70;74.70;;;;;;6282437;28;20319;-79
2023/12/18 07:50:30;;;;;;;16.30;14.70;;;6.70;74.80;;;;;;6290490;28;20859;-77
2023/12/18 07:53:34;;;;;;;17.10;14.40;;;6.60;75.00;;;;;;6290084;28;20237;-78
2023/12/18 07:56:37;;;;;;;15.57;13.90;;;6.60;75.00;;;;;;6287456;28;20363;-79
2023/12/18 07:59:41;;;;;;;17.50;13.80;;;6.60;74.90;;;;;;6283137;28;20244;-76
2023/12/18 08:02:44;;;;;;;15.17;13.63;;;6.70;75.00;;;;;;6285590;28;20279;-77
2023/12/18 08:05:47;;;;;;;15.90;14.30;;;6.70;74.90;;;;;;6287162;28;20260;-78
2023/12/18 08:08:52;;;;;;;16.60;13.47;;;6.60;75.00;;;;;;6284561;28;20240;-77
2023/12/18 08:11:56;;;;;;;16.13;12.80;;;6.70;74.80;;;;;;6284037;28;20240;-77
2023/12/18 08:15:02;;;;;;;14.60;13.30;;;6.80;74.60;;;;;;6293024;28;20229;-78
2023/12/18 08:18:05;;;;;;;16.20;12.93;;;6.80;74.60;;;;;;6280903;28;20248;-79
2023/12/18 08:21:12;;;;;;;15.07;13.57;;;6.80;74.70;;;;;;6281528;28;20243;-75
2023/12/18 08:24:16;;;;;;;14.00;12.53;;;6.80;74.70;;;;;;6293220;28;20586;-76
2023/12/18 08:27:19;;;;;;;17.20;13.63;;;6.80;74.70;;;;;;6294050;28;20602;-79
2023/12/18 08:30:23;;;;;;;14.07;12.63;;;6.90;74.80;;;;;;6276898;28;20294;-78
2023/12/18 08:33:27;;;;;;;15.57;13.90;;;6.90;74.50;;;;;;6278493;28;20816;-77
2023/12/18 08:36:30;;;;;;;16.03;14.37;;;6.90;74.20;;;;;;6290992;28;20308;-79
2023/12/18 08:39:33;;;;;;;14.77;13.20;;;6.90;74.40;;;;;;6274481;28;20225;-76
2023/12/18 08:42:37;;;;;;;14.60;13.20;;;6.90;74.10;;;;;;6280022;28;20225;-79
2023/12/18 08:45:42;;;;;;;14.80;13.40;;;6.90;74.30;;;;;;6282042;28;20249;-78
2023/12/18 08:48:45;;;;;;;14.13;12.70;;;6.90;74.40;;;;;;6289680;28;20242;-80
2023/12/18 08:51:48;;;;;;;14.77;13.27;;;6.90;74.40;;;;;;6276825;28;20237;-79
2023/12/18 08:54:51;;;;;;;16.33;12.90;;;6.90;74.60;;;;;;6277394;28;20330;-78
2023/12/18 08:57:55;;;;;;;15.27;13.77;;;6.90;74.40;;;;;;6282504;28;20313;-78
2023/12/18 09:00:59;;;;;;;16.37;13.60;;;6.90;74.60;;;;;;6274451;28;20740;-77
2023/12/18 09:04:02;;;;;;;14.00;12.70;;;6.90;74.60;;;;;;6276192;28;20251;-77
2023/12/18 09:07:05;;;;;;;14.83;13.17;;;6.80;74.80;;;;;;6285958;28;20264;-77
2023/12/18 09:10:09;;;;;;;13.73;12.43;;;6.80;75.00;;;;;;6278773;28;20736;-79
2023/12/18 09:13:18;;;;;;;13.73;12.10;;;6.80;75.20;;;;;;6276997;28;20267;-76
2023/12/18 09:16:24;;;;;;;13.50;12.30;;;6.90;74.90;;;;;;6286623;28;20696;-80
2023/12/18 09:19:27;;;;;;;12.97;11.77;;;6.90;75.00;;;;;;6287301;28;20229;-79
2023/12/18 09:22:30;;;;;;;13.27;12.03;;;6.80;75.20;;;;;;6279515;28;20225;-78
2023/12/18 09:25:33;;;;;;;16.40;12.50;;;6.80;75.20;;;;;;6285135;28;20269;-77
2023/12/18 09:28:36;;;;;;;13.87;12.43;;;6.90;75.10;;;;;;6283873;28;20328;-79
2023/12/18 09:31:41;;;;;;;14.47;13.13;;;6.90;75.00;;;;;;6284589;28;20858;-78
2023/12/18 09:34:44;;;;;;;14.03;12.60;;;6.90;74.80;;;;;;6283671;28;20229;-78
2023/12/18 09:37:47;;;;;;;14.70;13.37;;;6.90;74.70;;;;;;6282528;28;20226;-78
2023/12/18 09:40:50;;;;;;;12.80;11.60;;;6.90;74.80;;;;;;6287437;28;20229;-79
2023/12/18 09:43:54;;;;;;;13.73;12.43;;;7.00;74.80;;;;;;6294217;28;20237;-77
2023/12/18 09:46:59;;;;;;;13.70;12.47;;;7.00;74.70;;;;;;6227054;28;20286;-78
2023/12/18 09:50:04;;;;;;;13.70;12.60;;;6.90;74.70;;;;;;6274551;28;20245;-79
2023/12/18 09:53:10;;;;;;;15.77;12.87;;;6.90;74.90;;;;;;6283739;28;20242;-77
2023/12/18 09:56:13;;;;;;;13.60;12.37;;;7.00;74.60;;;;;;6275863;28;20329;-77
2023/12/18 09:59:17;;;;;;;14.50;13.03;;;7.00;74.50;;;;;;6278573;28;20654;-78
2023/12/18 10:02:22;;;;;;;14.50;13.00;;;7.00;74.60;;;;;;6295331;28;20858;-77
2023/12/18 10:05:26;;;;;;;14.63;13.23;;;7.00;74.40;;;;;;6281950;28;20245;-78
2023/12/18 10:08:29;;;;;;;14.73;13.33;;;7.00;74.40;;;;;;6281847;28;20630;-80
2023/12/18 10:11:33;;;;;;;16.10;13.20;;;7.00;74.60;;;;;;6286225;28;20320;-79
2023/12/18 10:14:36;;;;;;;14.00;12.70;;;7.00;74.60;;;;;;6282980;28;20285;-78
2023/12/18 10:17:42;;;;;;;14.30;12.90;;;7.00;74.50;;;;;;6285410;28;20297;-77
2023/12/18 10:20:49;;;;;;;14.67;13.10;;;7.00;74.50;;;;;;6287638;28;20308;-80
2023/12/18 10:23:52;;;;;;;17.03;13.63;;;7.00;74.50;;;;;;6284006;28;20315;-77
2023/12/18 10:26:56;;;;;;;14.43;12.93;;;7.00;74.70;;;;;;6288723;28;20241;-78
2023/12/18 10:29:59;;;;;;;15.33;13.93;;;7.00;74.70;;;;;;6292723;28;20244;-76
2023/12/18 10:33:09;;;;;;;15.83;14.20;;;7.00;74.70;;;;;;6285598;28;20322;-79
2023/12/18 10:36:16;;;;;;;14.70;13.20;;;7.00;74.50;;;;;;6282238;28;20224;-76
2023/12/18 10:39:22;;;;;;;15.83;14.13;;;6.90;74.80;;;;;;6288645;28;20265;-77
2023/12/18 10:42:33;;;;;;;14.77;13.30;;;7.00;74.70;;;;;;6277341;28;20241;-78
2023/12/18 10:45:37;;;;;;;15.03;13.53;;;7.00;74.60;;;;;;6286144;28;20313;-78
2023/12/18 10:48:43;;;;;;;15.40;13.80;;;7.00;74.50;;;;;;6285439;28;20238;-77
2023/12/18 10:51:47;;;;;;;15.73;14.13;;;7.00;74.70;;;;;;6290192;28;20484;-76
2023/12/18 10:54:53;;;;;;;14.73;13.30;;;7.00;74.40;;;;;;6292357;28;20233;-77
2023/12/18 10:57:59;;;;;;;14.77;13.33;;;7.00;74.20;;;;;;6287194;28;20280;-79
2023/12/18 11:01:04;;;;;;;15.67;13.67;;;7.00;74.50;;;;;;6290335;28;20317;-77
2023/12/18 11:04:12;;;;;;;15.30;13.87;;;7.10;74.20;;;;;;6288939;28;20241;-80
2023/12/18 11:07:19;;;;;;;15.60;13.90;;;7.00;74.20;;;;;;6289402;28;20245;-77
2023/12/18 11:10:22;;;;;;;14.93;13.63;;;7.00;74.20;;;;;;6281647;28;20357;-78
2023/12/18 11:13:27;;;;;;;17.50;14.50;;;7.00;74.00;;;;;;6287088;28;20961;-77
2023/12/18 11:16:42;;;;;;;14.77;13.40;;;7.00;74.10;;;;;;6278520;28;20718;-81
2023/12/18 11:19:52;;;;;;;15.23;13.83;;;7.10;73.80;;;;;;6294749;28;20242;-78
2023/12/18 11:22:57;;;;;;;16.13;13.03;;;7.20;73.50;;;;;;6290156;28;20233;-77
2023/12/18 11:26:04;;;;;;;15.43;13.80;;;7.20;73.60;;;;;;6289067;28;20317;-78
2023/12/18 11:29:41;;;;;;;16.20;13.43;;;7.20;73.40;;;;;;6292541;28;20294;-77
2023/12/18 11:32:46;;;;;;;15.93;14.40;;;7.10;73.40;;;;;;6288591;28;20233;-77
2023/12/18 11:35:51;;;;;;;16.80;13.97;;;7.10;73.40;;;;;;6289711;28;20251;-77
2023/12/18 11:38:54;;;;;;;15.73;13.90;;;7.00;73.40;;;;;;6280327;28;20237;-75
2023/12/18 11:41:57;;;;;;;17.63;14.87;;;7.00;73.60;;;;;;6292394;28;20309;-78
2023/12/18 11:45:04;;;;;;;16.17;13.53;;;7.10;73.60;;;;;;6290385;28;20891;-79
2023/12/18 11:48:08;;;;;;;19.97;14.60;;;7.10;73.50;;;;;;6288697;28;20711;-77
2023/12/18 11:51:13;;;;;;;15.67;14.00;;;7.00;73.30;;;;;;6285429;28;20234;-77
2023/12/18 11:54:17;;;;;;;16.13;14.43;;;7.00;73.50;;;;;;6280998;28;20412;-77
2023/12/18 11:57:21;;;;;;;16.27;14.67;;;7.00;73.30;;;;;;6289084;28;20882;-76
2023/12/18 12:00:25;;;;;;;16.33;14.70;;;7.20;72.70;;;;;;6288380;28;20244;-78
2023/12/18 12:03:30;;;;;;;16.27;14.47;;;7.20;72.80;;;;;;6280430;28;20671;-77
2023/12/18 12:06:35;;;;;;;16.87;15.13;;;7.20;72.70;;;;;;6287790;28;20277;-77
2023/12/18 12:09:41;;;;;;;17.03;15.33;;;7.30;72.50;;;;;;6288171;28;20229;-77
2023/12/18 12:12:44;;;;;;;16.10;14.43;;;7.30;72.30;;;;;;6280896;28;20800;-78
2023/12/18 12:15:55;;;;;;;15.60;14.17;;;7.20;72.40;;;;;;6285754;28;20256;-78
2023/12/18 12:18:59;;;;;;;17.77;14.50;;;7.20;72.50;;;;;;6270643;28;20237;-78
2023/12/18 12:22:06;;;;;;;18.57;15.03;;;7.40;72.20;;;;;;6284452;28;20795;-78
2023/12/18 12:25:09;;;;;;;18.37;14.67;;;7.40;72.20;;;;;;6287693;28;20237;-77
2023/12/18 12:28:13;;;;;;;16.80;14.97;;;7.20;72.70;;;;;;6281016;28;20289;-76
2023/12/18 12:31:17;;;;;;;15.57;13.93;;;7.30;72.50;;;;;;6286938;28;20267;-75
2023/12/18 12:34:21;;;;;;;17.60;14.73;;;7.30;72.30;;;;;;6282962;28;20234;-77
2023/12/18 12:37:25;;;;;;;17.07;15.27;;;7.40;72.60;;;;;;6282198;28;20387;-77
2023/12/18 12:40:38;;;;;;;15.63;14.10;;;7.40;72.30;;;;;;6285541;28;20238;-78
2023/12/18 12:43:41;;;;;;;16.13;14.33;;;7.30;72.40;;;;;;6284448;28;20753;-75
2023/12/18 12:46:45;;;;;;;14.93;13.50;;;7.20;72.80;;;;;;6281422;28;20307;-77
2023/12/18 12:49:49;;;;;;;16.40;13.90;;;7.20;72.90;;;;;;6287502;28;20315;-78
2023/12/18 12:52:54;;;;;;;16.40;14.87;;;7.20;72.90;;;;;;6286523;28;20232;-79
2023/12/18 12:55:58;;;;;;;16.67;14.17;;;7.20;72.80;;;;;;6279378;28;20675;-78
2023/12/18 12:59:02;;;;;;;17.17;14.53;;;7.20;72.80;;;;;;6282324;28;20316;-79
2023/12/18 13:02:05;;;;;;;16.27;14.37;;;7.20;72.90;;;;;;6277478;28;20328;-78
2023/12/18 13:05:08;;;;;;;15.57;14.00;;;7.20;73.00;;;;;;6282231;28;20237;-78
2023/12/18 13:08:13;;;;;;;20.83;14.80;;;7.20;73.20;;;;;;6285741;28;20308;-79
2023/12/18 13:11:19;;;;;;;19.10;14.77;;;7.20;73.30;;;;;;6277348;28;20802;-79
2023/12/18 13:14:22;;;;;;;15.67;14.07;;;7.20;73.40;;;;;;6276051;28;20268;-78
2023/12/18 13:17:26;;;;;;;15.57;13.97;;;7.20;73.30;;;;;;6273374;28;20261;-79
2023/12/18 13:20:29;;;;;;;17.67;14.67;;;7.20;73.40;;;;;;6275883;28;20233;-77
2023/12/18 13:23:36;;;;;;;15.63;13.70;;;7.20;73.20;;;;;;6280777;28;20234;-77
2023/12/18 13:26:40;;;;;;;15.17;13.67;;;7.20;73.40;;;;;;6276226;28;20237;-78
2023/12/18 13:29:43;;;;;;;16.77;14.97;;;7.30;73.30;;;;;;6283274;28;20247;-78
2023/12/18 13:32:46;;;;;;;18.37;14.30;;;7.40;73.30;;;;;;6279157;28;20987;-76
2023/12/18 13:35:49;;;;;;;16.80;14.77;;;7.30;73.40;;;;;;6279789;28;20230;-78
2023/12/18 13:38:54;;;;;;;16.80;14.10;;;7.20;73.70;;;;;;6281038;28;20232;-77
2023/12/18 13:41:59;;;;;;;15.13;13.57;;;7.20;73.70;;;;;;6285100;28;20233;-78
2023/12/18 13:45:03;;;;;;;17.90;14.20;;;7.20;73.80;;;;;;6279407;28;20276;-78
2023/12/18 13:48:06;;;;;;;17.33;13.90;;;7.20;73.70;;;;;;6275635;28;20271;-77
2023/12/18 13:51:11;;;;;;;14.17;12.63;;;7.20;73.90;;;;;;6275431;28;20938;-76
2023/12/18 13:54:15;;;;;;;17.03;13.60;;;7.20;74.10;;;;;;6278164;28;20236;-79
2023/12/18 13:57:19;;;;;;;14.43;13.07;;;7.20;74.10;;;;;;6283086;28;20221;-78
2023/12/18 14:00:23;;;;;;;17.70;13.63;;;7.20;74.30;;;;;;6279445;28;20228;-76
2023/12/18 14:03:27;;;;;;;15.10;13.60;;;7.10;74.30;;;;;;6282320;28;20229;-76
2023/12/18 14:06:30;;;;;;;15.87;12.87;;;7.20;74.20;;;;;;6284004;28;20815;-78
2023/12/18 14:09:35;;;;;;;13.77;12.47;;;7.20;74.10;;;;;;6279504;28;20230;-79
2023/12/18 14:12:38;;;;;;;16.13;13.27;;;7.20;74.20;;;;;;6284654;28;20244;-78
2023/12/18 14:15:41;;;;;;;16.50;13.57;;;7.20;74.30;;;;;;6282583;28;20236;-78
2023/12/18 14:18:49;;;;;;;14.10;12.67;;;7.20;74.30;;;;;;6279617;28;20735;-77
2023/12/18 14:21:52;;;;;;;15.20;12.17;;;7.20;74.50;;;;;;6281260;28;20263;-80
2023/12/18 14:24:57;;;;;;;15.77;11.97;;;7.20;74.40;;;;;;6284536;28;20221;-78
2023/12/18 14:28:00;;;;;;;14.90;12.13;;;7.20;74.30;;;;;;6271859;28;20234;-77
2023/12/18 14:31:04;;;;;;;15.13;13.47;;;7.20;74.30;;;;;;6271873;28;20237;-79
2023/12/18 14:34:07;;;;;;;15.93;12.43;;;7.20;74.60;;;;;;6272295;28;20241;-76
2023/12/18 14:37:11;;;;;;;16.40;12.70;;;7.20;74.40;;;;;;6278144;28;20318;-76
2023/12/18 14:40:16;;;;;;;16.73;13.07;;;7.20;74.50;;;;;;6280314;28;20651;-78
2023/12/18 14:43:19;;;;;;;14.77;12.27;;;7.20;74.50;;;;;;6281419;28;20320;-78
2023/12/18 14:46:22;;;;;;;13.43;11.63;;;7.20;74.50;;;;;;6285890;28;20233;-75
2023/12/18 14:49:25;;;;;;;12.50;11.17;;;7.20;74.70;;;;;;6269838;28;20326;-76
2023/12/18 14:52:29;;;;;;;12.53;11.33;;;7.20;74.70;;;;;;6284180;28;20234;-77
2023/12/18 14:55:34;;;;;;;13.10;11.77;;;7.10;74.80;;;;;;6280809;28;20241;-77
2023/12/18 14:58:37;;;;;;;12.77;11.60;;;7.20;74.70;;;;;;6282056;28;20241;-77
2023/12/18 15:01:42;;;;;;;12.90;11.63;;;7.20;74.70;;;;;;6283220;28;20257;-77
2023/12/18 15:04:45;;;;;;;14.37;11.57;;;7.00;74.90;;;;;;6292024;28;20233;-76
2023/12/18 15:07:48;;;;;;;12.87;11.53;;;7.10;75.10;;;;;;6289242;28;20248;-77
2023/12/18 15:10:53;;;;;;;12.97;11.57;;;7.00;75.40;;;;;;6293149;28;20693;-77
2023/12/18 15:13:56;;;;;;;13.00;11.70;;;7.00;75.50;;;;;;6274196;28;20247;-76
2023/12/18 15:17:03;;;;;;;14.53;11.63;;;7.00;75.60;;;;;;6279411;28;20233;-77
2023/12/18 15:20:08;;;;;;;12.67;11.07;;;7.00;75.40;;;;;;6287372;28;20693;-75
2023/12/18 15:23:11;;;;;;;12.13;10.87;;;7.00;75.50;;;;;;6282562;28;20236;-78
2023/12/18 15:26:16;;;;;;;12.47;10.70;;;7.10;75.30;;;;;;6283306;28;20229;-75
2023/12/18 15:29:19;;;;;;;12.47;10.93;;;7.00;75.50;;;;;;6282318;28;20236;-79
2023/12/18 15:32:22;;;;;;;11.97;10.83;;;6.90;75.80;;;;;;6285416;28;20233;-78
2023/12/18 15:35:26;;;;;;;11.33;10.30;;;7.00;75.70;;;;;;6286060;28;20237;-78
2023/12/18 15:38:29;;;;;;;12.43;11.23;;;6.90;75.80;;;;;;6285187;28;20233;-77
2023/12/18 15:41:34;;;;;;;11.57;10.37;;;7.00;75.70;;;;;;6284202;28;20240;-78
2023/12/18 15:44:40;;;;;;;11.57;10.57;;;7.00;75.70;;;;;;6288727;28;20363;-76
2023/12/18 15:47:43;;;;;;;11.30;10.17;;;7.00;75.70;;;;;;6281488;28;20229;-77
2023/12/18 15:50:46;;;;;;;11.63;10.53;;;7.00;75.60;;;;;;6283329;28;20252;-77